Terminal Aerodrome Forecast
Issued by NWS

Home | Current Version | Previous Version | Text Only | Print | Product List | Glossary On
Versions: 1 2 3 4 5 6 7 8 9 10 11 12 13
199
FTUS44 KTSA 100530
TAFXNA
TAF
KXNA 100530Z 1006/1106 36010KT P6SM SCT100
     FM100900 VRB03KT P6SM SCT250
     FM101500 20005KT P6SM SCT250
     FM101800 21012G18KT P6SM SCT250
     FM110000 20005KT P6SM SCT250=

USA.gov is the U.S. government's official web portal to all federal, state and local government web resources and services.